Terminal Aerodrome Forecast
Issued by NWS Milwaukee/Sullivan, WI

Home | Current Version | Previous Version | Text Only | Print | Product List | Glossary On
Versions: 1 2 3 4 5 6 7 8 9 10 11 12 13 14 15 16 17 18 19 20 21 22 23 24 25 26 27 28 29 30 31 32
000
FTUS43 KMKX 270520
TAFMKE
TAF
KMKE 270520Z 2706/2812 24008KT P6SM FEW080
     FM271500 27014KT P6SM SCT040
     FM271800 27014G22KT P6SM BKN045
     FM272300 28008KT P6SM -SHRA OVC045
     FM280200 29007KT P6SM -SHRA OVC025
     FM280600 29007KT P6SM OVC015
     FM281100 31008KT P6SM OVC015=

USA.gov is the U.S. government's official web portal to all federal, state and local government web resources and services.